LJLJLGRP

Guest
Details From LJLJ - Ljubljana
To LGRP - Diagoras
Flight Number -
Tags Generated
Created
Modified
Stats Distance 850 nm / 1,575 km
Max Altitude 0 ft / 0 m
Waypoints 4
Social Downloads 1
Likes 0
Share VATSIM

Download

Looking for another format? Having issues loading an existing format? Contact us
Advertisement - Login to hide

Notes

Generated

Route

LJLJ BRN PAR LGRP

ID Type Via Altitude Latitude Longitude Leg Dist Tot Dist Heading (true) Name
O LJLJ APT - 0 ft / 0 m 46.23249˚ 14.44039˚ - 0 nm - -
BRN NDB - 0 ft / 0 m 42.87117˚ 19.90342˚ 308 nm 308 nm 129° / 133° BERANE NDB
PAR VOR - 0 ft / 0 m 36.40011˚ 28.06533˚ 541 nm 850 nm 133° / 138° PARADISI VOR-DME
O LGRP APT - 0 ft / 0 m 36.40034˚ 28.06887˚ 0 nm 850 nm 85° / 85° -

Altitude Profile

Advertisement - Login to hide

Weather


0- 5 10 15 20 25 30 35+ Temperature / ° C

Clouds and Precipitation
Forecast for 2018-05-23 06:00 UTC. Updated 2 hours ago

Ground ~20,000 ft ~40,000 ft Winds

LJLJ

Details ICAO LJLJ (LJU)
Name LJUBLJANA
Region Slovenia
Timezone Europe/Ljubljana (UTC+2.0)
Stats Elevation 1,273 ft / 388 m (AMSL)
Location 46.223685° 14.457608°
Runways 1
Magnetic Variation 3.712° E

METAR

LJLJ 230700Z 11003KT 070V140 9999 FEW006 BKN250 16/14 Q1018 NOSIG

Decode

TAF

TAF LJLJ 230200Z 2303/2403 30003KT 9999 FEW040 SCT090 PROB30 TEMPO 2303/2307 0800 FG VV001 BECMG 2309/2311 12005KT TEMPO 2311/2401 SHRA SCT040TCU BKN070 PROB40 TEMPO 2312/2318 VRB15KT 4000 TSRA SCT040CB BKN050 BECMG 2319/2321 30003KT

Decode

Departure Runways

ID Width Length Bearing (true) Bearing (mag) Surface Threshold Offset Overrun Length
13 148 ft / 45 m 10,811 ft / 3,295 m 126.47° 122.76° Asphalt 0 ft / 0 m 0 ft / 0 m
31 148 ft / 45 m 10,811 ft / 3,295 m 306.49° 302.78° Asphalt 0 ft / 0 m 0 ft / 0 m

LGRP

Details ICAO LGRP (RHO)
Name DIAGORAS
Region Greece
Timezone Europe/Athens (UTC+3.0)
Stats Elevation 17 ft / 5 m (AMSL)
Location 36.405420° 28.086193°
Runways 1
Magnetic Variation 4.821° E

METAR

LGRP 230650Z 26015KT CAVOK 24/21 Q1015 NOSIG

Decode

TAF

TAF LGRP 230500Z 2306/2406 25013KT 9999 FEW018 TEMPO 2312/2318 26015G25KT

Decode

Destination Runways

ID Width Length Bearing (true) Bearing (mag) Surface Threshold Offset Overrun Length
07 148 ft / 45 m 10,830 ft / 3,301 m 69.97° 65.15° Asphalt 0 ft / 0 m 0 ft / 0 m
25 148 ft / 45 m 10,830 ft / 3,301 m 249.99° 245.17° Asphalt 0 ft / 0 m 0 ft / 0 m

Approach Navaids

Runway Type Ident Frequency Range Bearing (true) Bearing (mag) Slope Elevation
25 Localiser IRDS 110.30 MHz 18 nm / 33 km 250.45° 245.62° - 17 ft / 5 m (AMSL)
25 Glidescope IRDS 110.30 MHz 10 nm / 19 km 249.98° 245.16° 3.00° 17 ft / 5 m (AMSL)